Time;durP1;ratioP1;P1;durP2;ratioP2;P2;SDS_P1;SDS_P2;PMS_P1;PMS_P2;Temp;Humidity;BMP_temperature;BMP_pressure;BME280_temperature;BME280_humidity;BME280_pressure;Samples;Min_cycle;Max_cycle;Signal;HPM_P1;HPM_P2
2022/04/07 00:01:28;;;;;;;23.50;11.33;;;6.30;99.90;;;;;;4877671;29;20194;-65
2022/04/07 00:03:54;;;;;;;21.43;10.60;;;6.20;99.90;;;;;;4879269;29;20233;-67
2022/04/07 00:06:20;;;;;;;19.07;10.47;;;6.10;99.90;;;;;;4878705;29;20653;-66
2022/04/07 00:08:45;;;;;;;18.73;10.43;;;5.90;99.90;;;;;;4878981;29;20185;-67
2022/04/07 00:11:11;;;;;;;21.33;10.37;;;5.70;99.90;;;;;;4878810;29;20249;-65
2022/04/07 00:13:37;;;;;;;19.70;10.83;;;5.60;99.90;;;;;;4878382;29;20559;-65
2022/04/07 00:16:03;;;;;;;17.93;10.30;;;5.50;99.90;;;;;;4878970;29;20201;-66
2022/04/07 00:18:29;;;;;;;19.37;10.63;;;5.40;99.90;;;;;;4878375;29;20225;-65
2022/04/07 00:20:56;;;;;;;19.50;10.33;;;5.20;99.90;;;;;;4878784;29;20197;-65
2022/04/07 00:23:22;;;;;;;18.40;10.10;;;5.20;99.90;;;;;;4861786;29;20193;-66
2022/04/07 00:25:48;;;;;;;19.13;11.10;;;5.20;99.90;;;;;;4878693;29;20190;-66
2022/04/07 00:28:14;;;;;;;19.13;11.07;;;5.10;99.90;;;;;;4878555;29;20194;-66
2022/04/07 00:30:40;;;;;;;18.50;10.33;;;5.10;99.90;;;;;;4878355;29;20727;-66
2022/04/07 00:33:10;;;;;;;20.27;10.67;;;5.20;99.90;;;;;;4878627;29;20181;-66
2022/04/07 00:35:36;;;;;;;19.37;10.23;;;5.30;99.90;;;;;;4878116;29;20191;-66
2022/04/07 00:38:03;;;;;;;19.67;10.97;;;5.20;99.90;;;;;;4878684;29;20611;-65
2022/04/07 00:40:29;;;;;;;20.63;11.40;;;5.10;99.90;;;;;;4878139;29;20280;-66
2022/04/07 00:42:55;;;;;;;20.13;10.27;;;5.10;99.90;;;;;;4878491;29;20185;-65
2022/04/07 00:45:22;;;;;;;26.13;11.57;;;5.00;99.90;;;;;;4878388;29;20252;-65
2022/04/07 00:47:49;;;;;;;22.80;11.60;;;4.90;99.90;;;;;;4878546;29;20196;-66
2022/04/07 00:50:17;;;;;;;40.27;13.40;;;4.80;99.90;;;;;;4878122;29;20508;-65
2022/04/07 00:52:56;;;;;;;22.63;11.80;;;4.80;99.90;;;;;;4878238;29;20308;-65
2022/04/07 00:55:24;;;;;;;21.77;12.43;;;4.80;99.90;;;;;;4877669;29;20291;-66
2022/04/07 00:57:50;;;;;;;17.87;11.13;;;4.90;99.90;;;;;;4878295;29;20684;-65
2022/04/07 01:00:16;;;;;;;20.40;10.93;;;4.80;99.90;;;;;;4878468;29;20196;-65
2022/04/07 01:02:42;;;;;;;19.97;12.30;;;4.90;99.90;;;;;;4877953;29;20574;-65
2022/04/07 01:05:10;;;;;;;34.87;13.80;;;4.90;99.90;;;;;;4878005;29;20220;-65
2022/04/07 01:07:37;;;;;;;28.73;13.10;;;4.90;99.90;;;;;;4877864;29;20226;-65
2022/04/07 01:10:08;;;;;;;24.23;11.27;;;4.90;99.90;;;;;;4877934;29;20209;-65
2022/04/07 01:12:34;;;;;;;21.47;11.70;;;4.80;99.90;;;;;;4878031;29;20183;-65
2022/04/07 01:15:03;;;;;;;30.90;12.60;;;4.70;99.90;;;;;;4878402;29;20203;-66
2022/04/07 01:17:30;;;;;;;22.63;12.07;;;4.60;99.90;;;;;;4877960;29;20560;-65
2022/04/07 01:19:56;;;;;;;23.37;12.43;;;4.60;99.90;;;;;;4877748;29;20697;-65
2022/04/07 01:22:22;;;;;;;27.40;12.30;;;4.50;99.90;;;;;;4877933;29;20180;-65
2022/04/07 01:24:48;;;;;;;24.33;12.53;;;4.50;99.90;;;;;;4877737;29;20244;-66
2022/04/07 01:27:16;;;;;;;21.87;12.33;;;4.60;99.90;;;;;;4878108;29;20489;-65
2022/04/07 01:29:42;;;;;;;21.67;12.47;;;4.60;99.90;;;;;;4877752;29;20239;-65
2022/04/07 01:32:16;;;;;;;26.33;12.73;;;4.70;99.90;;;;;;4877767;29;20188;-65
2022/04/07 01:34:42;;;;;;;23.53;12.70;;;4.60;99.90;;;;;;4877745;29;20192;-66
2022/04/07 01:37:10;;;;;;;22.23;11.37;;;4.60;99.90;;;;;;4877878;29;20294;-65
2022/04/07 01:39:38;;;;;;;22.73;12.87;;;4.60;99.90;;;;;;4878001;29;20188;-65
2022/04/07 01:42:05;;;;;;;23.63;12.40;;;4.50;99.90;;;;;;4877809;29;20239;-65
2022/04/07 01:44:36;;;;;;;22.23;12.60;;;4.40;99.90;;;;;;4877642;29;20204;-65
2022/04/07 01:47:03;;;;;;;24.77;13.33;;;4.40;99.90;;;;;;4878016;29;20188;-65
2022/04/07 01:49:30;;;;;;;28.47;13.97;;;4.30;99.90;;;;;;4877484;29;20268;-66
2022/04/07 01:51:59;;;;;;;28.00;13.87;;;4.30;99.90;;;;;;4877676;29;20665;-65
2022/04/07 01:54:26;;;;;;;24.57;13.27;;;4.20;99.90;;;;;;4877557;29;20271;-67
2022/04/07 01:56:52;;;;;;;28.67;14.07;;;4.20;99.90;;;;;;4877691;29;20212;-66
2022/04/07 01:59:19;;;;;;;28.03;13.67;;;4.20;99.90;;;;;;4860949;29;20555;-65
2022/04/07 02:01:45;;;;;;;25.93;13.17;;;4.20;99.90;;;;;;4877194;29;20253;-66
2022/04/07 02:04:11;;;;;;;29.87;12.97;;;4.20;99.90;;;;;;4878167;29;20181;-65
2022/04/07 02:06:37;;;;;;;27.23;14.73;;;4.30;99.90;;;;;;4877932;29;20579;-65
2022/04/07 02:09:02;;;;;;;23.57;14.07;;;4.30;99.90;;;;;;4881367;29;20535;-65
2022/04/07 02:11:28;;;;;;;28.27;13.90;;;4.30;99.90;;;;;;4880983;29;20176;-66
2022/04/07 02:13:54;;;;;;;28.63;14.10;;;4.30;99.90;;;;;;4880865;29;20649;-65
2022/04/07 02:16:22;;;;;;;28.13;13.67;;;4.30;99.90;;;;;;4880672;29;20641;-65
2022/04/07 02:18:48;;;;;;;31.20;13.40;;;4.20;99.90;;;;;;4880645;29;20270;-65
2022/04/07 02:21:14;;;;;;;27.53;14.90;;;4.20;99.90;;;;;;4880437;29;20223;-65
2022/04/07 02:23:42;;;;;;;28.87;14.40;;;4.20;99.90;;;;;;4880530;29;20614;-65
2022/04/07 02:26:16;;;;;;;27.63;13.80;;;4.20;99.90;;;;;;4880796;29;20190;-65
2022/04/07 02:28:42;;;;;;;25.53;13.80;;;4.20;99.90;;;;;;4880565;29;20223;-65
2022/04/07 02:31:08;;;;;;;28.57;14.07;;;4.30;99.90;;;;;;4880553;29;20216;-66
2022/04/07 02:33:34;;;;;;;23.57;12.90;;;4.30;99.90;;;;;;4880466;29;20195;-66
2022/04/07 02:36:04;;;;;;;23.07;12.93;;;4.30;99.90;;;;;;4880698;29;20191;-66
2022/04/07 02:38:30;;;;;;;22.53;12.67;;;4.30;99.90;;;;;;4880029;29;20242;-66
2022/04/07 02:40:55;;;;;;;25.57;12.83;;;4.30;99.90;;;;;;4880460;29;20672;-66
2022/04/07 02:43:21;;;;;;;21.47;12.03;;;4.30;99.90;;;;;;4880500;29;20248;-66
2022/04/07 02:45:47;;;;;;;35.47;13.83;;;4.30;99.90;;;;;;4880040;29;20188;-66
2022/04/07 02:48:12;;;;;;;23.10;12.60;;;4.30;99.90;;;;;;4880594;29;20196;-66
2022/04/07 02:50:38;;;;;;;34.27;13.83;;;4.40;99.90;;;;;;4863416;29;20192;-66
2022/04/07 02:53:04;;;;;;;27.97;14.53;;;4.40;99.90;;;;;;4879997;29;20257;-66
2022/04/07 02:55:30;;;;;;;25.87;12.30;;;4.40;99.90;;;;;;4879782;29;20247;-67
2022/04/07 02:57:58;;;;;;;22.93;9.87;;;4.30;99.90;;;;;;4880116;29;20216;-66
2022/04/07 03:00:24;;;;;;;19.53;10.53;;;4.40;99.90;;;;;;4880268;29;20196;-66
2022/04/07 03:02:50;;;;;;;31.90;11.30;;;4.50;99.90;;;;;;4880040;29;20193;-66
2022/04/07 03:05:15;;;;;;;22.60;11.83;;;4.50;99.90;;;;;;4880257;29;20232;-66
2022/04/07 03:07:41;;;;;;;21.70;11.40;;;4.50;99.90;;;;;;4879612;29;20282;-66
2022/04/07 03:10:08;;;;;;;21.63;10.73;;;4.50;99.90;;;;;;4879989;29;20196;-66
2022/04/07 03:12:33;;;;;;;30.17;12.23;;;4.50;99.90;;;;;;4879355;29;20646;-66
2022/04/07 03:14:59;;;;;;;20.67;11.23;;;4.40;99.90;;;;;;4879830;29;20243;-66
2022/04/07 03:17:25;;;;;;;21.40;10.40;;;4.40;99.90;;;;;;4879619;29;20321;-66
2022/04/07 03:19:51;;;;;;;25.40;10.63;;;4.40;99.90;;;;;;4878703;29;20200;-66
2022/04/07 03:22:18;;;;;;;20.43;10.93;;;4.40;99.90;;;;;;4879736;29;20199;-66
2022/04/07 03:24:47;;;;;;;24.33;11.13;;;4.50;99.90;;;;;;4879405;29;20195;-66
2022/04/07 03:27:13;;;;;;;25.20;10.27;;;4.50;99.90;;;;;;4879237;29;20199;-66
2022/04/07 03:29:40;;;;;;;18.73;9.20;;;4.50;99.90;;;;;;4862587;29;20280;-66
2022/04/07 03:32:06;;;;;;;19.93;9.93;;;4.50;99.90;;;;;;4879153;29;20243;-66
2022/04/07 03:34:36;;;;;;;27.53;10.30;;;4.40;99.90;;;;;;4878822;29;20723;-67
2022/04/07 03:37:03;;;;;;;15.87;8.63;;;4.40;99.90;;;;;;4878947;29;20251;-66
2022/04/07 03:39:29;;;;;;;22.90;8.97;;;4.40;99.90;;;;;;4879255;29;20192;-66
2022/04/07 03:41:55;;;;;;;16.97;8.80;;;4.30;99.90;;;;;;4878778;29;20188;-66
2022/04/07 03:44:21;;;;;;;21.10;9.50;;;4.30;99.90;;;;;;4879490;29;20185;-66
2022/04/07 03:46:47;;;;;;;23.03;10.60;;;4.30;99.90;;;;;;4879038;29;20242;-66
2022/04/07 03:49:12;;;;;;;19.37;9.70;;;4.30;99.90;;;;;;4879446;29;20184;-66
2022/04/07 03:51:38;;;;;;;23.17;10.07;;;4.30;99.90;;;;;;4878482;29;20192;-66
2022/04/07 03:54:04;;;;;;;22.90;11.20;;;4.30;99.90;;;;;;4879054;29;20236;-66
2022/04/07 03:56:30;;;;;;;17.67;10.67;;;4.30;99.90;;;;;;4878555;29;20191;-66
2022/04/07 03:58:58;;;;;;;20.97;11.60;;;4.30;99.90;;;;;;4861698;29;20188;-65
2022/04/07 04:01:25;;;;;;;32.60;11.73;;;4.40;99.90;;;;;;4878894;29;20192;-65
2022/04/07 04:03:51;;;;;;;29.27;10.23;;;4.40;99.90;;;;;;4878564;29;20572;-65
2022/04/07 04:06:17;;;;;;;22.07;11.20;;;4.50;99.90;;;;;;4862160;29;20195;-65
2022/04/07 04:08:42;;;;;;;25.27;12.17;;;4.50;99.90;;;;;;4878061;29;20541;-66
2022/04/07 04:11:08;;;;;;;29.77;10.93;;;4.50;99.90;;;;;;4877085;29;20194;-66
2022/04/07 04:13:34;;;;;;;24.30;13.07;;;4.50;99.90;;;;;;4877938;29;20192;-66
2022/04/07 04:16:01;;;;;;;30.30;11.73;;;4.50;99.90;;;;;;4878546;29;20188;-65
2022/04/07 04:18:27;;;;;;;22.30;11.13;;;4.50;99.90;;;;;;4877821;29;20227;-65
2022/04/07 04:20:52;;;;;;;20.13;10.37;;;4.60;99.90;;;;;;4878163;29;20201;-67
2022/04/07 04:23:18;;;;;;;21.50;11.53;;;4.60;99.90;;;;;;4878631;29;20188;-68
2022/04/07 04:25:46;;;;;;;24.80;11.70;;;4.70;99.90;;;;;;4876990;29;20652;-66
2022/04/07 04:28:12;;;;;;;23.13;12.00;;;4.70;99.90;;;;;;4861218;29;20275;-67
2022/04/07 04:30:37;;;;;;;32.07;12.13;;;4.80;99.90;;;;;;4859386;29;20268;-65
2022/04/07 04:33:03;;;;;;;33.03;14.87;;;4.90;99.90;;;;;;4877664;29;20279;-65
2022/04/07 04:35:29;;;;;;;38.73;13.77;;;4.90;99.90;;;;;;4877933;29;20241;-66
2022/04/07 04:37:55;;;;;;;27.00;13.70;;;4.90;99.90;;;;;;4877256;29;20238;-65
2022/04/07 04:40:21;;;;;;;28.23;11.40;;;4.90;99.90;;;;;;4877381;29;20603;-67
2022/04/07 04:42:47;;;;;;;25.23;11.83;;;5.00;99.90;;;;;;4877215;29;20714;-66
2022/04/07 04:45:12;;;;;;;28.07;11.43;;;5.00;99.90;;;;;;4877619;29;20268;-66
2022/04/07 04:47:40;;;;;;;21.27;10.63;;;5.00;99.90;;;;;;4877426;29;20181;-67
2022/04/07 04:50:07;;;;;;;16.67;9.47;;;5.10;99.90;;;;;;4877576;29;20188;-66
2022/04/07 04:52:33;;;;;;;19.77;10.47;;;5.10;99.90;;;;;;4877197;29;20589;-67
2022/04/07 04:54:58;;;;;;;35.63;11.00;;;5.10;99.90;;;;;;4876939;29;20236;-68
2022/04/07 04:57:24;;;;;;;15.10;8.37;;;5.20;99.90;;;;;;4877162;29;20227;-67
2022/04/07 04:59:50;;;;;;;16.67;8.53;;;5.30;99.90;;;;;;4860292;29;20286;-68
2022/04/07 05:02:16;;;;;;;14.33;7.33;;;5.40;99.90;;;;;;4877220;29;20188;-59
2022/04/07 05:04:41;;;;;;;19.53;8.70;;;5.40;99.90;;;;;;4876801;29;20193;-57
2022/04/07 05:07:07;;;;;;;27.93;10.10;;;5.60;99.90;;;;;;4877009;29;20271;-57
2022/04/07 05:09:34;;;;;;;21.83;11.80;;;5.70;99.90;;;;;;4876505;29;20227;-56
2022/04/07 05:12:01;;;;;;;33.07;10.03;;;5.70;99.90;;;;;;4872925;29;20658;-59
2022/04/07 05:14:26;;;;;;;32.47;11.23;;;5.80;99.90;;;;;;4871386;29;20264;-65
2022/04/07 05:16:53;;;;;;;19.70;8.37;;;5.90;99.90;;;;;;4864556;29;20685;-60
2022/04/07 05:19:19;;;;;;;26.50;8.03;;;6.10;99.90;;;;;;4874287;29;20255;-60
2022/04/07 05:21:49;;;;;;;19.73;8.17;;;6.30;99.90;;;;;;4876085;29;20213;-61
2022/04/07 05:24:17;;;;;;;15.70;7.13;;;6.60;99.90;;;;;;4867617;29;20286;-62
2022/04/07 05:26:44;;;;;;;15.43;7.10;;;6.80;99.90;;;;;;4863535;29;20230;-60
2022/04/07 05:29:09;;;;;;;26.03;7.10;;;7.00;99.90;;;;;;4876584;29;20681;-60
2022/04/07 05:31:35;;;;;;;28.70;7.73;;;7.10;99.90;;;;;;4858221;29;20192;-67
2022/04/07 05:34:01;;;;;;;19.30;7.90;;;7.30;99.90;;;;;;4865873;29;20196;-69
2022/04/07 05:36:27;;;;;;;30.73;8.77;;;7.50;99.90;;;;;;4876688;29;20332;-63
2022/04/07 05:38:53;;;;;;;24.47;7.97;;;7.60;99.90;;;;;;4876593;29;20673;-65
2022/04/07 05:41:19;;;;;;;20.27;7.30;;;7.70;99.90;;;;;;4860634;29;20192;-64
2022/04/07 05:43:44;;;;;;;13.93;7.00;;;7.90;99.90;;;;;;4878025;29;20200;-66
2022/04/07 05:46:10;;;;;;;23.50;8.27;;;8.00;99.90;;;;;;4873260;29;20189;-65
2022/04/07 05:48:36;;;;;;;16.53;7.80;;;8.10;99.90;;;;;;4870248;29;20574;-64
2022/04/07 05:51:02;;;;;;;25.33;8.30;;;8.10;99.90;;;;;;4880321;29;20216;-66
2022/04/07 05:53:27;;;;;;;19.97;7.90;;;8.20;99.90;;;;;;4880480;29;20271;-64
2022/04/07 05:55:53;;;;;;;33.17;10.50;;;8.20;99.90;;;;;;4877302;29;20211;-65
2022/04/07 05:58:19;;;;;;;25.23;10.47;;;8.30;99.90;;;;;;4877953;29;20603;-63
2022/04/07 06:00:45;;;;;;;22.00;9.67;;;8.40;99.90;;;;;;4879731;29;20249;-64
2022/04/07 06:03:12;;;;;;;20.40;8.83;;;8.50;99.90;;;;;;4879589;29;20192;-65
2022/04/07 06:05:37;;;;;;;18.90;8.83;;;8.70;99.90;;;;;;4880075;29;20236;-64
2022/04/07 06:08:03;;;;;;;24.67;9.30;;;8.80;99.90;;;;;;4880432;29;20192;-63
2022/04/07 06:10:29;;;;;;;40.03;10.43;;;9.00;99.90;;;;;;4871524;29;20198;-65
2022/04/07 06:12:55;;;;;;;28.33;9.80;;;9.20;99.90;;;;;;4869793;29;20183;-64
2022/04/07 06:15:22;;;;;;;20.57;9.80;;;9.40;99.90;;;;;;4880132;29;20657;-66
2022/04/07 06:17:50;;;;;;;27.10;10.93;;;9.60;99.90;;;;;;4879643;29;20216;-64
2022/04/07 06:20:16;;;;;;;41.67;13.10;;;9.70;99.90;;;;;;4879464;29;20200;-64
2022/04/07 06:22:42;;;;;;;32.90;11.97;;;9.80;99.90;;;;;;4862487;29;20251;-65
2022/04/07 06:25:09;;;;;;;48.43;13.87;;;10.00;99.90;;;;;;4879881;29;20282;-65
2022/04/07 06:27:35;;;;;;;37.83;14.83;;;10.20;99.90;;;;;;4878619;29;20657;-64
2022/04/07 06:30:03;;;;;;;25.33;13.17;;;10.40;99.90;;;;;;4863305;29;20314;-64
2022/04/07 06:32:29;;;;;;;40.83;14.13;;;10.60;99.90;;;;;;4879812;29;20191;-65
2022/04/07 06:34:55;;;;;;;25.03;11.87;;;10.70;99.90;;;;;;4876112;29;20216;-66
2022/04/07 06:37:21;;;;;;;28.77;13.77;;;10.80;99.90;;;;;;4867171;29;20285;-64
2022/04/07 06:39:46;;;;;;;30.37;14.40;;;11.10;99.90;;;;;;4873025;29;20256;-63
2022/04/07 06:42:12;;;;;;;44.20;15.90;;;11.30;99.90;;;;;;4867484;29;20195;-65
2022/04/07 06:44:38;;;;;;;35.83;12.90;;;11.60;99.90;;;;;;4870135;29;20587;-64
2022/04/07 06:47:04;;;;;;;32.00;13.33;;;11.90;99.90;;;;;;4851532;29;20556;-65
2022/04/07 06:49:29;;;;;;;34.70;14.10;;;12.20;99.90;;;;;;4866009;29;20706;-64
2022/04/07 06:51:55;;;;;;;47.70;14.53;;;12.40;99.90;;;;;;4869625;29;20230;-63
2022/04/07 06:54:21;;;;;;;31.20;13.50;;;12.60;99.90;;;;;;4871200;29;20239;-65
2022/04/07 06:56:46;;;;;;;33.97;12.30;;;12.80;99.90;;;;;;4878963;29;20602;-63
2022/04/07 06:59:12;;;;;;;27.73;12.10;;;13.00;99.90;;;;;;4878989;29;20194;-64
2022/04/07 07:01:38;;;;;;;32.37;14.27;;;13.30;99.90;;;;;;4878952;29;20192;-65
2022/04/07 07:04:04;;;;;;;38.30;12.90;;;13.70;99.90;;;;;;4877997;29;20192;-65
2022/04/07 07:06:30;;;;;;;26.53;12.57;;;13.90;99.60;;;;;;4878828;29;20244;-63
2022/04/07 07:08:55;;;;;;;24.10;11.90;;;14.00;98.70;;;;;;4878685;29;20700;-64
2022/04/07 07:11:21;;;;;;;26.30;13.10;;;13.80;98.70;;;;;;4878668;29;20679;-65
2022/04/07 07:13:47;;;;;;;28.37;11.93;;;13.80;98.80;;;;;;4878348;29;20192;-63
2022/04/07 07:16:13;;;;;;;23.70;11.87;;;14.00;98.80;;;;;;4878579;29;20712;-64
2022/04/07 07:18:38;;;;;;;35.00;12.63;;;14.20;98.00;;;;;;4878706;29;20580;-65
2022/04/07 07:21:05;;;;;;;26.87;11.40;;;14.10;97.90;;;;;;4878770;29;20195;-64
2022/04/07 07:23:32;;;;;;;23.90;11.10;;;14.20;98.00;;;;;;4878945;29;20203;-64
2022/04/07 07:25:58;;;;;;;31.50;12.53;;;14.30;97.70;;;;;;4878055;29;20181;-64
2022/04/07 07:28:24;;;;;;;30.50;10.83;;;14.50;97.60;;;;;;4878703;29;20184;-65
2022/04/07 07:30:49;;;;;;;21.97;10.13;;;14.60;96.90;;;;;;4878398;29;20562;-63
2022/04/07 07:33:15;;;;;;;36.33;13.03;;;14.70;96.70;;;;;;4878559;29;20200;-65
2022/04/07 07:35:45;;;;;;;26.53;12.90;;;14.60;96.70;;;;;;4878494;29;20192;-65
2022/04/07 07:38:12;;;;;;;25.63;11.63;;;14.60;96.60;;;;;;4861882;29;20228;-66
2022/04/07 07:40:38;;;;;;;29.63;12.27;;;14.50;96.70;;;;;;4878404;29;20196;-65
2022/04/07 07:43:04;;;;;;;26.03;12.20;;;14.60;96.80;;;;;;4878336;29;20641;-65
2022/04/07 07:45:32;;;;;;;24.97;11.70;;;14.90;96.00;;;;;;4861198;29;20204;-64
2022/04/07 07:47:58;;;;;;;30.47;12.67;;;14.80;95.80;;;;;;4878260;29;20549;-63
2022/04/07 07:50:24;;;;;;;24.03;11.93;;;14.90;96.10;;;;;;4877847;29;20196;-65
2022/04/07 07:52:50;;;;;;;25.80;11.23;;;15.10;95.60;;;;;;4878415;29;20188;-63
2022/04/07 07:55:17;;;;;;;29.10;13.47;;;15.20;95.20;;;;;;4868387;29;20233;-65
2022/04/07 07:57:43;;;;;;;29.47;13.00;;;15.40;95.40;;;;;;4873883;29;20668;-66
2022/04/07 08:00:10;;;;;;;38.03;15.33;;;15.70;95.00;;;;;;4858653;29;20201;-65
2022/04/07 08:02:37;;;;;;;45.40;16.70;;;16.00;94.70;;;;;;4859486;29;20664;-65
2022/04/07 08:05:04;;;;;;;48.03;15.40;;;16.20;94.20;;;;;;4857732;29;20642;-65
2022/04/07 08:07:30;;;;;;;16.90;8.90;;;16.20;93.80;;;;;;4858570;29;20324;-64
2022/04/07 08:09:56;;;;;;;20.23;7.97;;;16.20;93.40;;;;;;4857434;29;20185;-64
2022/04/07 08:12:26;;;;;;;22.77;10.80;;;16.10;92.40;;;;;;4864033;29;20189;-66
2022/04/07 08:14:52;;;;;;;13.77;7.20;;;15.80;92.30;;;;;;4877676;29;20295;-65
2022/04/07 08:17:20;;;;;;;19.70;7.67;;;15.50;92.90;;;;;;4877866;29;20245;-66
2022/04/07 08:19:46;;;;;;;20.83;9.13;;;15.30;93.20;;;;;;4877245;29;20210;-65
2022/04/07 08:22:13;;;;;;;23.80;10.13;;;15.40;93.20;;;;;;4878032;29;20196;-65
2022/04/07 08:24:39;;;;;;;42.73;12.33;;;15.50;93.30;;;;;;4878232;29;20211;-66
2022/04/07 08:27:06;;;;;;;20.23;8.40;;;15.40;92.80;;;;;;4878075;29;20667;-65
2022/04/07 08:29:32;;;;;;;14.33;7.90;;;15.60;92.80;;;;;;4877344;29;20720;-64
2022/04/07 08:31:58;;;;;;;13.83;7.50;;;15.50;92.10;;;;;;4877665;29;20188;-65
2022/04/07 08:34:25;;;;;;;16.90;8.27;;;15.40;92.10;;;;;;4877566;29;20179;-65
2022/04/07 08:36:52;;;;;;;20.73;8.50;;;15.40;92.10;;;;;;4877573;29;20209;-64
2022/04/07 08:39:18;;;;;;;17.63;8.37;;;15.40;92.10;;;;;;4877321;29;20195;-66
2022/04/07 08:41:45;;;;;;;18.57;9.20;;;15.40;92.00;;;;;;4869802;29;20188;-63
2022/04/07 08:44:12;;;;;;;18.73;8.20;;;15.30;92.40;;;;;;4858483;29;20189;-65
2022/04/07 08:46:40;;;;;;;20.80;9.07;;;15.30;92.20;;;;;;4857293;29;20544;-66
2022/04/07 08:49:07;;;;;;;37.83;11.67;;;15.20;92.20;;;;;;4857576;29;20733;-66
2022/04/07 08:51:33;;;;;;;17.90;9.90;;;15.10;92.40;;;;;;4858789;29;20291;-66
2022/04/07 08:53:59;;;;;;;22.47;9.27;;;15.00;92.30;;;;;;4858799;29;20621;-66
2022/04/07 08:56:26;;;;;;;37.67;10.07;;;15.00;92.20;;;;;;4858633;29;20207;-66
2022/04/07 08:58:55;;;;;;;17.77;8.53;;;15.10;92.50;;;;;;4858473;29;20679;-67
2022/04/07 09:01:22;;;;;;;24.50;9.93;;;15.30;92.20;;;;;;4860976;29;20200;-62
2022/04/07 09:03:48;;;;;;;21.50;10.53;;;15.20;91.90;;;;;;4867979;29;20229;-64
2022/04/07 09:06:18;;;;;;;25.93;8.87;;;15.00;92.00;;;;;;4854811;29;20196;-65
2022/04/07 09:08:43;;;;;;;14.73;8.87;;;15.00;92.00;;;;;;4863708;29;20270;-63
2022/04/07 09:11:11;;;;;;;20.47;8.80;;;15.00;91.80;;;;;;4874712;29;20206;-65
2022/04/07 09:13:42;;;;;;;19.83;10.03;;;14.90;91.80;;;;;;4868881;29;20189;-59
2022/04/07 09:16:12;;;;;;;22.00;9.60;;;14.90;91.90;;;;;;4868322;29;20296;-62
2022/04/07 09:18:40;;;;;;;24.93;10.00;;;14.90;91.90;;;;;;4875368;29;20231;-68
2022/04/07 09:21:07;;;;;;;22.73;10.43;;;15.30;91.30;;;;;;4872350;29;20198;-62
2022/04/07 09:23:38;;;;;;;25.40;10.30;;;15.30;91.20;;;;;;4874820;29;20204;-65
2022/04/07 09:26:04;;;;;;;19.40;9.97;;;15.70;91.30;;;;;;4873868;29;20208;-68
2022/04/07 09:28:31;;;;;;;31.67;10.73;;;16.10;90.50;;;;;;4879276;29;20204;-72
2022/04/07 09:30:58;;;;;;;16.67;8.80;;;16.40;90.00;;;;;;4868293;29;20656;-70
2022/04/07 09:33:26;;;;;;;21.27;8.63;;;16.80;88.80;;;;;;4862281;29;20239;-69
2022/04/07 09:36:12;;;;;;;19.33;9.40;;;16.60;88.50;;;;;;4861556;29;20261;-70
2022/04/07 09:38:38;;;;;;;23.90;9.93;;;16.70;87.70;;;;;;4862056;29;20248;-71
2022/04/07 09:41:09;;;;;;;20.33;9.93;;;16.60;87.50;;;;;;4860539;29;20197;-70
2022/04/07 09:43:49;;;;;;;23.90;10.37;;;16.20;88.30;;;;;;4862306;29;20256;-71
2022/04/07 09:46:20;;;;;;;21.20;10.17;;;16.10;89.40;;;;;;4861831;29;20192;-69
2022/04/07 09:49:03;;;;;;;18.47;9.93;;;16.20;89.40;;;;;;4862039;29;20229;-69
2022/04/07 09:51:29;;;;;;;18.23;9.57;;;16.50;88.50;;;;;;4860884;29;20232;-69
2022/04/07 09:53:57;;;;;;;13.50;8.77;;;16.50;87.10;;;;;;4859464;29;20233;-68
2022/04/07 09:56:28;;;;;;;15.00;8.57;;;16.80;87.00;;;;;;4859593;29;20185;-69
2022/04/07 09:58:55;;;;;;;17.97;9.20;;;17.00;85.70;;;;;;4858925;29;20227;-71
2022/04/07 10:01:21;;;;;;;15.80;9.10;;;17.20;84.50;;;;;;4859309;29;20280;-68
2022/04/07 10:03:50;;;;;;;14.70;8.90;;;17.40;83.70;;;;;;4859401;29;20597;-70
2022/04/07 10:06:17;;;;;;;14.90;8.37;;;17.40;83.30;;;;;;4843404;29;20237;-70
2022/04/07 10:08:46;;;;;;;19.67;8.17;;;17.70;82.90;;;;;;4860863;29;20660;-72
2022/04/07 10:11:13;;;;;;;18.97;8.27;;;17.60;81.70;;;;;;4860675;29;20602;-70
2022/04/07 10:13:41;;;;;;;24.90;7.60;;;17.40;80.50;;;;;;4875396;29;20279;-71
2022/04/07 10:16:07;;;;;;;19.40;7.90;;;17.10;82.00;;;;;;4879709;29;20197;-73
2022/04/07 10:19:04;;;;;;;14.97;8.60;;;16.90;82.00;;;;;;4879692;29;20315;-70
2022/04/07 10:22:01;;;;;;;14.57;6.97;;;16.80;81.70;;;;;;4871766;29;20204;-71
2022/04/07 10:24:29;;;;;;;16.83;7.33;;;16.90;81.80;;;;;;4879997;29;20192;-71
2022/04/07 10:26:58;;;;;;;14.07;7.57;;;17.00;80.70;;;;;;4879289;29;20215;-69
2022/04/07 10:29:24;;;;;;;23.97;7.50;;;17.10;81.20;;;;;;4879796;29;20188;-71
2022/04/07 10:32:25;;;;;;;18.20;6.90;;;17.20;81.80;;;;;;4879392;29;20660;-71
2022/04/07 10:34:58;;;;;;;14.33;6.60;;;17.40;79.40;;;;;;4821687;29;20721;-65
2022/04/07 10:37:42;;;;;;;24.50;6.60;;;17.30;79.70;;;;;;4870205;29;20244;-70
2022/04/07 10:40:50;;;;;;;18.00;6.37;;;17.20;79.10;;;;;;4878886;29;20184;-69
2022/04/07 10:43:25;;;;;;;14.67;6.70;;;17.20;79.60;;;;;;4879560;29;20184;-69
2022/04/07 10:46:06;;;;;;;12.70;6.60;;;17.20;78.80;;;;;;4879588;29;20188;-70
2022/04/07 10:49:09;;;;;;;14.60;6.87;;;17.00;79.10;;;;;;4879307;29;20189;-70
2022/04/07 10:51:41;;;;;;;18.90;6.90;;;17.10;79.10;;;;;;4879093;29;20555;-70
2022/04/07 10:54:07;;;;;;;23.73;6.47;;;17.30;78.70;;;;;;4879198;29;20244;-71
2022/04/07 10:56:39;;;;;;;9.80;6.00;;;17.60;78.30;;;;;;4879115;29;20188;-71
2022/04/07 10:59:22;;;;;;;16.53;5.90;;;18.00;77.60;;;;;;4878728;29;20223;-71
2022/04/07 11:01:53;;;;;;;17.23;6.90;;;18.10;76.70;;;;;;4878592;29;20192;-69
2022/04/07 11:04:19;;;;;;;12.63;7.03;;;18.20;75.90;;;;;;4879003;29;20184;-70
2022/04/07 11:07:07;;;;;;;15.47;6.63;;;18.00;75.50;;;;;;4878861;29;20181;-71
2022/04/07 11:09:57;;;;;;;14.40;6.47;;;17.70;75.40;;;;;;4878835;29;20195;-71
2022/04/07 11:12:43;;;;;;;19.37;7.23;;;17.60;76.00;;;;;;4878672;29;20703;-71
2022/04/07 11:15:32;;;;;;;17.00;6.33;;;17.60;76.10;;;;;;4861860;29;20275;-72
2022/04/07 11:18:04;;;;;;;20.23;6.97;;;17.50;75.90;;;;;;4878633;29;20223;-71
2022/04/07 11:20:30;;;;;;;13.50;6.20;;;17.50;75.80;;;;;;4879047;29;20213;-70
2022/04/07 11:22:58;;;;;;;16.33;5.27;;;17.60;75.60;;;;;;4862151;29;20192;-72
2022/04/07 11:25:31;;;;;;;20.17;6.33;;;17.70;75.50;;;;;;4879167;29;20237;-71
2022/04/07 11:28:10;;;;;;;17.03;6.97;;;17.80;75.60;;;;;;4878610;29;20188;-71
2022/04/07 11:30:48;;;;;;;17.70;6.80;;;18.00;75.30;;;;;;4878960;29;20806;-72
2022/04/07 11:33:20;;;;;;;13.57;5.70;;;17.90;74.80;;;;;;4878681;29;20652;-70
2022/04/07 11:36:02;;;;;;;17.23;6.63;;;18.00;74.60;;;;;;4879005;29;20183;-70
2022/04/07 11:38:47;;;;;;;19.13;6.03;;;17.90;74.20;;;;;;4878470;29;20591;-71
2022/04/07 11:41:14;;;;;;;10.90;6.10;;;17.80;74.50;;;;;;4878217;29;20196;-71
2022/04/07 11:43:44;;;;;;;21.60;6.73;;;17.50;75.10;;;;;;4878873;29;20196;-71
2022/04/07 11:46:13;;;;;;;13.73;6.00;;;17.40;75.20;;;;;;4878410;29;20203;-71
2022/04/07 11:48:40;;;;;;;14.57;6.73;;;17.50;75.10;;;;;;4878684;29;20271;-70
2022/04/07 11:51:18;;;;;;;17.77;6.50;;;17.70;75.50;;;;;;4878293;29;20525;-71
2022/04/07 11:53:55;;;;;;;25.93;6.30;;;18.40;74.10;;;;;;4878378;29;20326;-71
2022/04/07 11:56:26;;;;;;;10.00;6.70;;;18.70;72.30;;;;;;4878183;29;20196;-71
2022/04/07 11:58:55;;;;;;;16.57;7.83;;;18.30;72.70;;;;;;4878489;29;20589;-70
2022/04/07 12:01:21;;;;;;;14.80;6.90;;;18.00;73.40;;;;;;4878161;29;20184;-71
2022/04/07 12:03:52;;;;;;;15.33;7.40;;;18.10;73.50;;;;;;4877797;29;20582;-71
2022/04/07 12:06:24;;;;;;;14.90;7.00;;;18.20;73.30;;;;;;4876412;29;20196;-72
2022/04/07 12:08:52;;;;;;;14.90;7.20;;;18.30;73.10;;;;;;4877890;29;20280;-72
2022/04/07 12:11:21;;;;;;;18.73;9.20;;;18.80;71.80;;;;;;4877594;29;20279;-71
2022/04/07 12:13:49;;;;;;;11.93;7.50;;;19.50;70.80;;;;;;4877311;29;20227;-72
2022/04/07 12:16:15;;;;;;;24.25;9.32;;;19.80;69.40;;;;;;4877973;29;20231;-69
2022/04/07 12:18:51;;;;;;;12.63;8.25;;;19.90;67.80;;;;;;4877424;29;20310;-70
2022/04/07 12:21:17;;;;;;;21.67;9.87;;;19.20;69.00;;;;;;4877635;29;20195;-71
2022/04/07 12:23:42;;;;;;;22.85;9.20;;;19.10;70.80;;;;;;4877426;29;20188;-71
2022/04/07 12:26:08;;;;;;;15.03;9.80;;;18.70;71.30;;;;;;4876752;29;20661;-67
2022/04/07 12:28:38;;;;;;;15.90;9.37;;;18.40;71.60;;;;;;4871243;29;20227;-70
2022/04/07 12:31:21;;;;;;;19.37;9.83;;;18.30;72.30;;;;;;4857287;29;20650;-72
2022/04/07 12:33:48;;;;;;;29.67;10.40;;;18.40;72.20;;;;;;4858470;29;20405;-69
2022/04/07 12:36:16;;;;;;;28.20;10.97;;;18.30;72.70;;;;;;4857720;29;20545;-72
2022/04/07 12:38:58;;;;;;;21.70;11.43;;;18.30;72.40;;;;;;4861569;29;20439;-71
2022/04/07 12:41:42;;;;;;;29.73;10.77;;;18.30;72.70;;;;;;4866171;29;20199;-70